createdAt,value
2019-02-26T00:32:03.039Z,22.87
2019-02-26T00:34:39.081Z,24.02
2019-02-26T00:37:08.473Z,28.98
2019-02-26T00:39:35.920Z,22.37
2019-02-26T00:42:05.171Z,24.72
2019-02-26T00:44:34.509Z,23.40
2019-02-26T00:47:02.576Z,23.00
2019-02-26T00:49:30.362Z,25.05
2019-02-26T00:51:57.674Z,25.17
2019-02-26T00:54:26.760Z,24.18
2019-02-26T00:56:57.065Z,25.30
2019-02-26T00:59:23.024Z,23.47
2019-02-26T01:01:52.495Z,24.35
2019-02-26T01:04:19.442Z,23.73
2019-02-26T01:06:46.763Z,26.68
2019-02-26T01:09:14.223Z,26.85
2019-02-26T01:11:42.926Z,22.20
2019-02-26T01:14:10.540Z,23.80
2019-02-26T01:16:39.401Z,24.52
2019-02-26T01:19:08.542Z,26.93
2019-02-26T01:21:37.843Z,25.15
2019-02-26T01:24:06.464Z,23.10
2019-02-26T01:26:34.288Z,22.67
2019-02-26T01:29:01.583Z,24.60
2019-02-26T01:31:29.279Z,25.72
2019-02-26T01:33:57.892Z,22.45
2019-02-26T01:36:25.443Z,28.38
2019-02-26T01:38:53.171Z,20.52
2019-02-26T01:41:22.722Z,30.70
2019-02-26T01:43:49.623Z,26.85
2019-02-26T01:46:18.712Z,25.62
2019-02-26T01:48:46.120Z,27.52
2019-02-26T01:51:13.410Z,24.05
2019-02-26T01:53:42.253Z,26.68
2019-02-26T01:56:09.732Z,25.15
2019-02-26T01:58:37.033Z,23.80
2019-02-26T02:01:04.313Z,27.32
2019-02-26T02:03:32.587Z,25.45
2019-02-26T02:05:59.982Z,23.65
2019-02-26T02:08:27.302Z,24.70
2019-02-26T02:10:57.111Z,26.42
2019-02-26T02:13:26.223Z,25.23
2019-02-26T02:15:52.663Z,23.73
2019-02-26T02:18:21.012Z,28.98
2019-02-26T02:20:49.047Z,25.92
2019-02-26T02:23:16.409Z,24.40
2019-02-26T02:25:45.568Z,25.80
2019-02-26T02:28:12.716Z,25.45
2019-02-26T02:30:40.071Z,24.82
2019-02-26T02:33:07.431Z,25.25
2019-02-26T02:35:34.734Z,26.87
2019-02-26T02:38:04.326Z,26.90
2019-02-26T02:40:31.084Z,27.95
2019-02-26T02:42:58.379Z,25.55
2019-02-26T02:45:25.667Z,23.65
2019-02-26T02:47:57.843Z,27.50
2019-02-26T02:50:22.036Z,27.25
2019-02-26T02:52:50.894Z,28.40
2019-02-26T02:55:19.333Z,28.07
2019-02-26T02:57:49.269Z,29.75
2019-02-26T03:00:16.419Z,32.05
2019-02-26T03:02:46.488Z,25.88
2019-02-26T03:05:13.180Z,26.33
2019-02-26T03:07:42.423Z,26.00
2019-02-26T03:10:12.090Z,30.43
2019-02-26T03:12:39.467Z,27.00
2019-02-26T03:15:10.099Z,27.48
2019-02-26T03:17:37.285Z,27.37
2019-02-26T03:20:07.678Z,26.65
2019-02-26T03:22:36.302Z,24.70
2019-02-26T03:25:04.702Z,27.52
2019-02-26T03:27:34.121Z,27.93
2019-02-26T03:30:01.941Z,28.00
2019-02-26T03:32:29.629Z,27.30
2019-02-26T03:35:02.116Z,26.12
2019-02-26T03:37:28.495Z,26.65
2019-02-26T03:39:57.321Z,25.72
2019-02-26T03:42:24.058Z,27.50
2019-02-26T03:44:51.413Z,29.75
2019-02-26T03:47:19.303Z,27.90
2019-02-26T03:49:46.661Z,29.80
2019-02-26T03:52:15.871Z,29.35
2019-02-26T03:54:45.396Z,29.90
2019-02-26T03:57:14.192Z,25.52
2019-02-26T03:59:41.179Z,25.90
2019-02-26T04:02:09.505Z,24.40
2019-02-26T04:04:37.543Z,26.33
2019-02-26T04:07:07.174Z,28.83
2019-02-26T04:09:34.033Z,27.37
2019-02-26T04:12:01.310Z,27.07
2019-02-26T04:14:30.686Z,31.77
2019-02-26T04:17:00.710Z,27.77
2019-02-26T04:19:27.200Z,29.55
2019-02-26T04:22:13.159Z,28.52
2019-02-26T04:24:41.335Z,31.55
2019-02-26T04:27:28.231Z,25.75
2019-02-26T04:30:01.327Z,25.65
2019-02-26T04:32:32.853Z,27.05
2019-02-26T04:35:02.454Z,28.42
2019-02-26T04:37:42.728Z,27.48
2019-02-26T04:40:14.000Z,29.70
2019-02-26T04:42:53.897Z,27.60
2019-02-26T04:45:40.558Z,27.15
2019-02-26T04:48:09.527Z,27.77
2019-02-26T04:50:38.762Z,23.77
2019-02-26T04:53:08.551Z,27.15
2019-02-26T04:55:36.054Z,33.48
2019-02-26T04:58:03.990Z,34.15
2019-02-26T05:00:33.722Z,23.95
2019-02-26T05:03:00.385Z,31.77
2019-02-26T05:05:31.021Z,27.30
2019-02-26T05:07:56.702Z,25.88
2019-02-26T05:10:26.487Z,25.50
2019-02-26T05:12:56.686Z,26.70
2019-02-26T05:15:23.311Z,28.87
2019-02-26T05:17:51.115Z,26.68
2019-02-26T05:20:19.048Z,25.20
2019-02-26T05:22:46.406Z,29.82
2019-02-26T05:25:16.263Z,25.35
2019-02-26T05:27:45.216Z,29.63
2019-02-26T05:30:15.547Z,27.67
2019-02-26T05:32:40.746Z,27.00
2019-02-26T05:35:08.183Z,26.93
2019-02-26T05:37:40.322Z,27.60
2019-02-26T05:40:07.072Z,30.02
2019-02-26T05:42:33.899Z,27.58
2019-02-26T05:45:05.362Z,26.15
2019-02-26T05:47:30.220Z,28.10
2019-02-26T05:49:59.431Z,27.37
2019-02-26T05:52:27.282Z,26.05
2019-02-26T05:54:55.601Z,27.17
2019-02-26T05:57:31.244Z,31.50
2019-02-26T05:59:51.987Z,27.00
2019-02-26T06:02:21.814Z,28.23
2019-02-26T06:04:48.294Z,26.80
2019-02-26T06:07:19.175Z,28.20
2019-02-26T06:09:45.499Z,26.65
2019-02-26T06:12:13.642Z,27.77
2019-02-26T06:14:40.931Z,25.55
2019-02-26T06:17:10.503Z,27.27
2019-02-26T06:19:44.994Z,26.20
2019-02-26T06:22:17.215Z,30.25
2019-02-26T06:24:41.476Z,28.00
2019-02-26T06:27:13.107Z,28.55
2019-02-26T06:29:37.865Z,27.30
2019-02-26T06:32:12.349Z,27.70
2019-02-26T06:34:39.827Z,27.00
2019-02-26T06:37:10.037Z,30.60
2019-02-26T06:39:37.897Z,30.95
2019-02-26T06:42:07.147Z,29.57
2019-02-26T06:44:34.241Z,30.62
2019-02-26T06:47:02.618Z,29.37
2019-02-26T06:49:31.006Z,31.25
2019-02-26T06:51:58.387Z,28.45
2019-02-26T06:54:27.137Z,26.95
2019-02-26T06:56:55.220Z,28.10
2019-02-26T06:59:34.366Z,28.60
2019-02-26T07:02:01.901Z,32.03
2019-02-26T07:04:30.209Z,30.20
2019-02-26T07:06:59.416Z,31.20
2019-02-26T07:09:27.561Z,33.45
2019-02-26T07:11:54.863Z,29.37
2019-02-26T07:14:23.128Z,29.85
2019-02-26T07:16:51.544Z,29.35
2019-02-26T07:19:19.343Z,31.25
2019-02-26T07:21:48.013Z,30.95
2019-02-26T07:24:18.122Z,44.60
2019-02-26T07:26:48.240Z,46.48
2019-02-26T07:29:17.547Z,42.45
2019-02-26T07:31:47.158Z,36.00
2019-02-26T07:34:15.744Z,26.95
2019-02-26T07:36:43.879Z,47.75
2019-02-26T07:39:13.071Z,32.25
2019-02-26T07:41:42.294Z,33.40
2019-02-26T07:44:15.424Z,25.88
2019-02-26T07:46:40.302Z,25.05
2019-02-26T07:49:08.717Z,23.60
2019-02-26T07:51:38.607Z,27.15
2019-02-26T07:54:06.540Z,28.25
2019-02-26T07:56:34.289Z,26.60
2019-02-26T07:59:04.476Z,29.90
2019-02-26T08:01:31.103Z,23.40
2019-02-26T08:03:58.792Z,26.55
2019-02-26T08:06:26.821Z,27.95
2019-02-26T08:08:55.325Z,27.22
2019-02-26T08:11:22.638Z,29.70
2019-02-26T08:13:51.609Z,24.20
2019-02-26T08:16:20.670Z,25.15
2019-02-26T08:18:49.342Z,29.98
2019-02-26T08:21:17.729Z,23.45
2019-02-26T08:23:46.582Z,24.60
2019-02-26T08:26:17.388Z,25.08
2019-02-26T08:28:45.900Z,35.28
2019-02-26T08:31:15.614Z,24.93
2019-02-26T08:33:42.616Z,26.70
2019-02-26T08:36:14.110Z,27.00
2019-02-26T08:38:41.538Z,26.70
2019-02-26T08:41:08.936Z,27.27
2019-02-26T08:43:36.339Z,29.23
2019-02-26T08:46:03.760Z,29.40
2019-02-26T08:48:32.955Z,27.90
2019-02-26T08:51:03.071Z,27.33
2019-02-26T08:53:31.551Z,30.57
2019-02-26T08:55:59.709Z,27.77
2019-02-26T08:58:28.327Z,28.17
2019-02-26T09:00:55.770Z,27.17
2019-02-26T09:03:23.922Z,26.50
2019-02-26T09:05:53.820Z,29.67
2019-02-26T09:08:21.154Z,28.40
2019-02-26T09:10:52.126Z,29.50
2019-02-26T09:13:19.642Z,29.33
2019-02-26T09:15:47.508Z,32.30
2019-02-26T09:18:15.016Z,29.47
2019-02-26T09:20:42.628Z,28.53
2019-02-26T09:23:10.010Z,31.27
2019-02-26T09:25:37.676Z,30.43
2019-02-26T09:28:04.967Z,31.10
2019-02-26T09:30:33.918Z,31.47
2019-02-26T09:33:03.165Z,31.33
2019-02-26T09:35:31.359Z,31.83
2019-02-26T09:38:01.003Z,29.97
2019-02-26T09:40:29.245Z,30.50
2019-02-26T09:43:00.145Z,31.30
2019-02-26T09:45:29.773Z,31.03
2019-02-26T09:47:57.855Z,30.80
2019-02-26T09:50:25.514Z,30.90
2019-02-26T09:52:55.745Z,31.63
2019-02-26T09:55:21.906Z,33.57
2019-02-26T09:57:52.440Z,31.47
2019-02-26T10:00:23.646Z,32.83
2019-02-26T10:02:54.240Z,32.80
2019-02-26T10:05:21.896Z,31.10
2019-02-26T10:07:54.932Z,33.10
2019-02-26T10:10:31.203Z,32.57
2019-02-26T10:12:59.923Z,34.37
2019-02-26T10:15:27.806Z,35.57
2019-02-26T10:17:58.324Z,33.43
2019-02-26T10:20:28.606Z,33.30
2019-02-26T10:22:57.676Z,33.40
2019-02-26T10:25:26.408Z,34.60
2019-02-26T10:27:53.244Z,35.73
2019-02-26T10:30:21.318Z,32.50
2019-02-26T10:32:49.407Z,35.43
2019-02-26T10:35:21.333Z,36.40
2019-02-26T10:37:51.411Z,35.10
2019-02-26T10:40:19.988Z,34.47
2019-02-26T10:42:47.367Z,36.03
2019-02-26T10:45:16.048Z,35.40
2019-02-26T10:47:43.373Z,35.63
2019-02-26T10:50:13.049Z,34.87
2019-02-26T10:52:41.309Z,34.37
2019-02-26T10:55:12.838Z,35.90
2019-02-26T10:57:38.504Z,35.67
2019-02-26T11:00:10.880Z,38.47
2019-02-26T11:02:40.590Z,36.33
2019-02-26T11:05:10.664Z,34.40
2019-02-26T11:07:39.928Z,34.70
2019-02-26T11:10:07.748Z,33.27
2019-02-26T11:12:35.121Z,34.77
2019-02-26T11:15:04.971Z,34.07
2019-02-26T11:17:31.690Z,32.17
2019-02-26T11:20:01.107Z,31.20
2019-02-26T11:22:28.307Z,34.60
2019-02-26T11:24:56.905Z,34.00
2019-02-26T11:27:24.778Z,32.50
2019-02-26T11:29:54.478Z,33.10
2019-02-26T11:32:21.117Z,31.17
2019-02-26T11:34:50.307Z,34.63
2019-02-26T11:37:17.423Z,32.17
2019-02-26T11:39:44.732Z,31.07
2019-02-26T11:42:12.239Z,32.20
2019-02-26T11:44:39.786Z,29.90
2019-02-26T11:47:08.519Z,30.00
2019-02-26T11:49:36.997Z,30.90
2019-02-26T11:52:05.377Z,29.47
2019-02-26T11:54:34.536Z,30.00
2019-02-26T11:57:01.934Z,26.20
2019-02-26T11:59:31.053Z,25.93
2019-02-26T12:01:59.094Z,24.33
2019-02-26T12:04:27.382Z,25.93
2019-02-26T12:06:59.094Z,27.93
2019-02-26T12:09:30.029Z,24.27
2019-02-26T12:11:58.599Z,26.00
2019-02-26T12:14:26.205Z,24.90
2019-02-26T12:16:53.643Z,25.17
2019-02-26T12:19:22.946Z,20.50
2019-02-26T12:21:52.015Z,18.07
2019-02-26T12:24:19.172Z,22.42
2019-02-26T12:26:47.730Z,20.12
2019-02-26T12:29:21.548Z,19.80
2019-02-26T12:31:50.259Z,20.45
2019-02-26T12:34:18.237Z,20.25
2019-02-26T12:36:48.097Z,24.82
2019-02-26T12:39:16.697Z,21.45
2019-02-26T12:41:47.982Z,20.90
2019-02-26T12:44:16.586Z,18.70
2019-02-26T12:46:44.860Z,17.75
2019-02-26T12:49:15.775Z,19.37
2019-02-26T12:51:42.857Z,22.45
2019-02-26T12:54:13.750Z,17.98
2019-02-26T12:56:39.286Z,21.20
2019-02-26T12:59:07.608Z,15.83
2019-02-26T13:01:36.198Z,17.85
2019-02-26T13:04:05.998Z,17.57
2019-02-26T13:06:34.404Z,18.85
2019-02-26T13:09:02.128Z,16.00
2019-02-26T13:11:29.552Z,17.55
2019-02-26T13:13:56.910Z,16.23
2019-02-26T13:16:24.279Z,25.92
2019-02-26T13:18:56.466Z,16.32
2019-02-26T13:21:20.666Z,18.67
2019-02-26T13:23:48.000Z,16.87
2019-02-26T13:26:19.538Z,15.98
2019-02-26T13:28:48.036Z,19.45
2019-02-26T13:31:19.124Z,15.30
2019-02-26T13:33:44.349Z,18.87
2019-02-26T13:36:11.866Z,16.80
2019-02-26T13:38:44.642Z,20.02
2019-02-26T13:41:27.693Z,17.98
2019-02-26T13:43:37.418Z,17.92
2019-02-26T13:46:05.144Z,17.45
2019-02-26T13:48:32.452Z,15.08
2019-02-26T13:50:59.812Z,17.12
2019-02-26T13:53:27.133Z,15.08
2019-02-26T13:55:54.516Z,15.05
2019-02-26T13:58:21.914Z,14.20
2019-02-26T14:00:49.384Z,11.95
2019-02-26T14:03:16.987Z,12.82
2019-02-26T14:05:44.468Z,14.70
2019-02-26T14:08:11.838Z,14.95
2019-02-26T14:10:39.272Z,12.25
2019-02-26T14:13:06.709Z,11.53
2019-02-26T14:15:34.280Z,12.98
2019-02-26T14:18:05.470Z,13.95
2019-02-26T14:20:33.840Z,14.63
2019-02-26T14:23:01.302Z,12.45
2019-02-26T14:25:28.626Z,15.60
2019-02-26T14:27:56.642Z,13.43
2019-02-26T14:30:26.523Z,13.32
2019-02-26T14:32:53.892Z,12.98
2019-02-26T14:35:21.271Z,12.93
2019-02-26T14:37:48.676Z,13.00
2019-02-26T14:40:16.915Z,14.78
2019-02-26T14:42:44.207Z,13.15
2019-02-26T14:45:18.309Z,12.60
2019-02-26T14:47:45.752Z,15.28
2019-02-26T14:50:14.006Z,11.50
2019-02-26T14:52:41.484Z,22.22
2019-02-26T14:55:09.950Z,12.23
2019-02-26T14:57:38.792Z,16.05
2019-02-26T15:00:08.395Z,14.03
2019-02-26T15:02:35.818Z,13.22
2019-02-26T15:05:04.321Z,11.43
2019-02-26T15:07:32.026Z,13.18
2019-02-26T15:09:59.407Z,14.23
2019-02-26T15:12:26.726Z,12.20
2019-02-26T15:14:54.214Z,13.90
2019-02-26T15:17:21.976Z,16.35
2019-02-26T15:19:52.465Z,17.10
2019-02-26T15:22:18.339Z,16.73
2019-02-26T15:24:46.259Z,16.20
2019-02-26T15:27:13.782Z,16.17
2019-02-26T15:29:41.149Z,19.20
2019-02-26T15:32:08.516Z,19.25
2019-02-26T15:34:35.885Z,17.00
2019-02-26T15:37:03.301Z,18.85
2019-02-26T15:39:30.648Z,18.07
2019-02-26T15:41:57.961Z,18.75
2019-02-26T15:44:26.186Z,18.95
2019-02-26T15:46:54.550Z,19.90
2019-02-26T15:49:21.868Z,20.17
2019-02-26T15:51:51.050Z,17.73
2019-02-26T15:54:18.538Z,21.62
2019-02-26T15:56:46.097Z,18.30
2019-02-26T15:59:13.414Z,16.75
2019-02-26T16:01:40.771Z,18.98
2019-02-26T16:04:08.160Z,19.05
2019-02-26T16:06:35.534Z,20.05
2019-02-26T16:09:03.260Z,20.65
2019-02-26T16:11:30.636Z,19.45
2019-02-26T16:13:59.806Z,19.85
2019-02-26T16:16:27.267Z,24.60
2019-02-26T16:18:54.666Z,19.00
2019-02-26T16:21:22.398Z,26.10
2019-02-26T16:23:50.022Z,23.02
2019-02-26T16:26:17.321Z,19.50
2019-02-26T16:28:44.682Z,20.52
2019-02-26T16:31:11.978Z,22.75
2019-02-26T16:33:39.390Z,21.75
2019-02-26T16:36:06.738Z,21.00
2019-02-26T16:38:34.188Z,19.55
2019-02-26T16:41:02.821Z,20.85
2019-02-26T16:43:30.891Z,22.00
2019-02-26T16:45:58.309Z,21.75
2019-02-26T16:48:25.771Z,21.10
2019-02-26T16:50:53.150Z,22.17
2019-02-26T16:53:20.512Z,21.37
2019-02-26T16:55:49.095Z,21.90
2019-02-26T16:58:17.018Z,21.27
2019-02-26T17:00:46.587Z,22.17
2019-02-26T17:03:13.557Z,18.70
2019-02-26T17:05:41.123Z,23.12
2019-02-26T17:08:08.653Z,23.07
2019-02-26T17:10:35.941Z,21.65
2019-02-26T17:13:03.355Z,22.98
2019-02-26T17:15:34.322Z,20.65
2019-02-26T17:18:04.962Z,20.15
2019-02-26T17:20:32.318Z,22.60
2019-02-26T17:22:59.697Z,20.55
2019-02-26T17:25:28.505Z,21.02
2019-02-26T17:27:57.146Z,20.92
2019-02-26T17:30:24.813Z,20.80
2019-02-26T17:32:52.296Z,20.55
2019-02-26T17:35:21.303Z,21.05
2019-02-26T17:37:48.758Z,21.30
2019-02-26T17:40:16.909Z,26.65
2019-02-26T17:42:44.326Z,22.62
2019-02-26T17:45:13.079Z,25.05
2019-02-26T17:47:40.389Z,22.55
2019-02-26T17:50:14.975Z,25.72
2019-02-26T17:52:42.674Z,24.47
2019-02-26T17:55:10.203Z,28.10
2019-02-26T17:57:37.777Z,28.30
2019-02-26T18:00:06.680Z,30.30
2019-02-26T18:02:34.044Z,28.92
2019-02-26T18:05:01.751Z,26.45
2019-02-26T18:07:30.432Z,23.60
2019-02-26T18:09:57.789Z,29.40
2019-02-26T18:12:25.141Z,25.32
2019-02-26T18:14:52.456Z,20.10
2019-02-26T18:17:19.754Z,25.17
2019-02-26T18:19:49.423Z,23.57
2019-02-26T18:22:16.115Z,26.02
2019-02-26T18:24:43.565Z,23.12
2019-02-26T18:27:10.917Z,25.32
2019-02-26T18:29:38.207Z,28.02
2019-02-26T18:32:05.543Z,26.70
2019-02-26T18:34:33.797Z,33.05
2019-02-26T18:37:01.268Z,25.20
2019-02-26T18:39:29.822Z,27.27
2019-02-26T18:41:59.155Z,27.15
2019-02-26T18:44:26.584Z,26.42
2019-02-26T18:46:54.001Z,25.77
2019-02-26T18:49:22.398Z,24.20
2019-02-26T18:51:49.946Z,24.15
2019-02-26T18:54:19.945Z,24.12
2019-02-26T18:56:46.336Z,27.60
2019-02-26T18:59:13.764Z,32.17
2019-02-26T19:01:41.217Z,27.00
2019-02-26T19:04:08.559Z,28.17
2019-02-26T19:06:36.014Z,29.42
2019-02-26T19:09:03.495Z,27.20
2019-02-26T19:11:31.062Z,30.40
2019-02-26T19:13:58.770Z,30.12
2019-02-26T19:16:26.170Z,25.25
2019-02-26T19:18:55.521Z,26.05
2019-02-26T19:21:22.890Z,27.65
2019-02-26T19:23:51.887Z,29.85
2019-02-26T19:26:19.421Z,32.63
2019-02-26T19:28:46.729Z,26.20
2019-02-26T19:31:14.205Z,28.67
2019-02-26T19:33:41.580Z,25.15
2019-02-26T19:36:10.647Z,31.02
2019-02-26T19:38:38.012Z,28.20
2019-02-26T19:41:07.889Z,27.15
2019-02-26T19:43:35.427Z,33.40
2019-02-26T19:46:02.838Z,27.40
2019-02-26T19:48:30.923Z,24.43
2019-02-26T19:50:59.216Z,38.98
2019-02-26T19:53:26.542Z,29.37
2019-02-26T19:55:54.045Z,31.80
2019-02-26T19:58:21.443Z,31.90
2019-02-26T20:00:52.724Z,30.23
2019-02-26T20:03:17.913Z,33.30
2019-02-26T20:05:46.621Z,30.15
2019-02-26T20:08:14.391Z,28.23
2019-02-26T20:10:41.855Z,31.90
2019-02-26T20:13:12.563Z,30.68
2019-02-26T20:15:39.283Z,27.62
2019-02-26T20:18:07.428Z,28.65
2019-02-26T20:20:40.823Z,26.30
2019-02-26T20:23:06.298Z,24.15
2019-02-26T20:25:33.764Z,27.58
2019-02-26T20:28:05.380Z,29.70
2019-02-26T20:30:30.251Z,27.93
2019-02-26T20:32:57.794Z,31.52
2019-02-26T20:35:26.060Z,26.42
2019-02-26T20:37:53.514Z,35.38
2019-02-26T20:40:21.623Z,32.30
2019-02-26T20:42:49.007Z,26.40
2019-02-26T20:45:19.886Z,26.15
2019-02-26T20:47:47.362Z,33.00
2019-02-26T20:50:14.732Z,32.33
2019-02-26T20:52:42.045Z,31.40
2019-02-26T20:55:13.990Z,31.05
2019-02-26T20:57:41.312Z,27.87
2019-02-26T21:00:10.700Z,29.70
2019-02-26T21:02:38.042Z,26.17
2019-02-26T21:05:10.845Z,26.42
2019-02-26T21:07:37.754Z,27.93
2019-02-26T21:10:06.199Z,26.80
2019-02-26T21:12:34.860Z,31.60
2019-02-26T21:15:02.475Z,27.82
2019-02-26T21:17:29.856Z,29.42
2019-02-26T21:19:57.243Z,28.17
2019-02-26T21:22:24.661Z,28.65
2019-02-26T21:24:52.379Z,38.83
2019-02-26T21:27:19.828Z,30.30
2019-02-26T21:29:47.134Z,38.53
2019-02-26T21:32:14.605Z,30.72
2019-02-26T21:34:42.927Z,29.30
2019-02-26T21:37:10.366Z,31.30
2019-02-26T21:39:37.864Z,31.93
2019-02-26T21:42:05.384Z,30.05
2019-02-26T21:44:32.732Z,34.90
2019-02-26T21:47:00.089Z,33.38
2019-02-26T21:49:27.580Z,34.95
2019-02-26T21:51:55.250Z,28.57
2019-02-26T21:54:24.601Z,30.95
2019-02-26T21:56:51.627Z,28.67
2019-02-26T21:59:18.936Z,27.37
2019-02-26T22:01:46.576Z,31.45
2019-02-26T22:04:13.925Z,31.68
2019-02-26T22:06:44.418Z,33.40
2019-02-26T22:09:10.325Z,33.85
2019-02-26T22:11:37.725Z,32.85
2019-02-26T22:14:05.165Z,30.00
2019-02-26T22:16:32.567Z,32.33
2019-02-26T22:18:59.910Z,32.23
2019-02-26T22:21:27.231Z,34.33
2019-02-26T22:23:54.521Z,34.70
2019-02-26T22:26:23.619Z,29.27
2019-02-26T22:28:50.871Z,34.73
2019-02-26T22:31:18.177Z,29.18
2019-02-26T22:33:46.380Z,30.25
2019-02-26T22:36:13.882Z,31.73
2019-02-26T22:38:41.301Z,33.38
2019-02-26T22:41:08.676Z,35.83
2019-02-26T22:43:37.668Z,30.05
2019-02-26T22:46:04.971Z,32.05
2019-02-26T22:48:32.277Z,30.05
2019-02-26T22:51:00.288Z,31.48
2019-02-26T22:53:27.648Z,29.50
2019-02-26T22:55:54.959Z,33.95
2019-02-26T22:58:22.253Z,29.25
2019-02-26T23:00:52.792Z,31.12
2019-02-26T23:03:20.288Z,30.10
2019-02-26T23:05:47.637Z,32.17
2019-02-26T23:08:15.102Z,30.92
2019-02-26T23:10:42.399Z,32.13
2019-02-26T23:13:09.728Z,29.20
2019-02-26T23:15:37.183Z,30.27
2019-02-26T23:18:04.512Z,34.98
2019-02-26T23:20:32.209Z,31.62
2019-02-26T23:22:59.511Z,32.28
2019-02-26T23:25:26.976Z,32.45
2019-02-26T23:27:54.331Z,31.50
2019-02-26T23:30:21.601Z,32.88
2019-02-26T23:32:48.914Z,31.17
2019-02-26T23:35:16.282Z,33.40
2019-02-26T23:37:43.590Z,36.55
2019-02-26T23:40:11.607Z,28.67
2019-02-26T23:42:39.595Z,29.85
2019-02-26T23:45:08.253Z,33.95
2019-02-26T23:47:35.704Z,29.45
2019-02-26T23:50:03.208Z,36.17
2019-02-26T23:52:30.497Z,31.68
2019-02-26T23:54:57.799Z,31.57
2019-02-26T23:57:25.683Z,32.10
2019-02-26T23:59:53.083Z,32.10
